sensor_id;sensor_type;location;lat;lon;timestamp;P1;durP1;ratioP1;P2;durP2;ratioP2
21697;SDS011;11010;49.548;11.926;2023-06-22T00:00:03;10.48;;;3.42;;
21697;SDS011;11010;49.548;11.926;2023-06-22T00:02:37;8.82;;;3.30;;
21697;SDS011;11010;49.548;11.926;2023-06-22T00:05:04;8.70;;;3.50;;
21697;SDS011;11010;49.548;11.926;2023-06-22T00:07:32;7.95;;;3.30;;
21697;SDS011;11010;49.548;11.926;2023-06-22T00:09:59;8.10;;;3.58;;
21697;SDS011;11010;49.548;11.926;2023-06-22T00:12:26;10.80;;;3.67;;
21697;SDS011;11010;49.548;11.926;2023-06-22T00:14:53;8.52;;;3.67;;
21697;SDS011;11010;49.548;11.926;2023-06-22T00:17:20;11.32;;;3.78;;
21697;SDS011;11010;49.548;11.926;2023-06-22T00:19:47;7.97;;;3.28;;
21697;SDS011;11010;49.548;11.926;2023-06-22T00:22:19;8.23;;;3.40;;
21697;SDS011;11010;49.548;11.926;2023-06-22T00:24:56;8.68;;;3.60;;
21697;SDS011;11010;49.548;11.926;2023-06-22T00:27:23;8.70;;;3.63;;
21697;SDS011;11010;49.548;11.926;2023-06-22T00:29:50;8.10;;;3.53;;
21697;SDS011;11010;49.548;11.926;2023-06-22T00:32:18;8.02;;;3.13;;
21697;SDS011;11010;49.548;11.926;2023-06-22T00:34:46;10.25;;;3.60;;
21697;SDS011;11010;49.548;11.926;2023-06-22T00:37:14;10.13;;;3.70;;
21697;SDS011;11010;49.548;11.926;2023-06-22T00:39:41;9.20;;;3.58;;
21697;SDS011;11010;49.548;11.926;2023-06-22T00:42:11;10.32;;;3.65;;
21697;SDS011;11010;49.548;11.926;2023-06-22T00:44:38;9.40;;;3.67;;
21697;SDS011;11010;49.548;11.926;2023-06-22T00:47:05;8.93;;;3.45;;
21697;SDS011;11010;49.548;11.926;2023-06-22T00:49:33;8.63;;;3.40;;
21697;SDS011;11010;49.548;11.926;2023-06-22T00:52:00;10.50;;;3.65;;
21697;SDS011;11010;49.548;11.926;2023-06-22T00:54:28;8.52;;;3.35;;
21697;SDS011;11010;49.548;11.926;2023-06-22T00:56:56;9.07;;;3.83;;
21697;SDS011;11010;49.548;11.926;2023-06-22T00:59:24;9.93;;;3.72;;
21697;SDS011;11010;49.548;11.926;2023-06-22T01:01:53;10.98;;;3.95;;
21697;SDS011;11010;49.548;11.926;2023-06-22T01:04:23;9.43;;;3.80;;
21697;SDS011;11010;49.548;11.926;2023-06-22T01:09:35;9.07;;;3.50;;
21697;SDS011;11010;49.548;11.926;2023-06-22T01:12:12;8.13;;;3.20;;
21697;SDS011;11010;49.548;11.926;2023-06-22T01:14:43;9.80;;;3.83;;
21697;SDS011;11010;49.548;11.926;2023-06-22T01:17:17;9.73;;;3.40;;
21697;SDS011;11010;49.548;11.926;2023-06-22T01:19:46;9.32;;;3.90;;
21697;SDS011;11010;49.548;11.926;2023-06-22T01:22:27;9.02;;;3.63;;
21697;SDS011;11010;49.548;11.926;2023-06-22T01:25:10;8.77;;;3.60;;
21697;SDS011;11010;49.548;11.926;2023-06-22T01:30:34;8.75;;;3.50;;
21697;SDS011;11010;49.548;11.926;2023-06-22T01:33:03;9.93;;;3.78;;
21697;SDS011;11010;49.548;11.926;2023-06-22T01:35:31;10.73;;;3.95;;
21697;SDS011;11010;49.548;11.926;2023-06-22T01:37:59;11.20;;;4.07;;
21697;SDS011;11010;49.548;11.926;2023-06-22T01:40:27;9.57;;;3.83;;
21697;SDS011;11010;49.548;11.926;2023-06-22T01:42:56;9.60;;;3.70;;
21697;SDS011;11010;49.548;11.926;2023-06-22T01:45:24;9.75;;;4.15;;
21697;SDS011;11010;49.548;11.926;2023-06-22T01:47:51;11.15;;;4.22;;
21697;SDS011;11010;49.548;11.926;2023-06-22T01:50:19;9.40;;;4.20;;
21697;SDS011;11010;49.548;11.926;2023-06-22T01:52:48;10.40;;;4.22;;
21697;SDS011;11010;49.548;11.926;2023-06-22T01:55:15;8.25;;;3.80;;
21697;SDS011;11010;49.548;11.926;2023-06-22T01:57:42;11.48;;;4.18;;
21697;SDS011;11010;49.548;11.926;2023-06-22T02:00:13;10.85;;;3.95;;
21697;SDS011;11010;49.548;11.926;2023-06-22T02:05:20;9.70;;;4.22;;
21697;SDS011;11010;49.548;11.926;2023-06-22T02:07:55;9.05;;;3.88;;
21697;SDS011;11010;49.548;11.926;2023-06-22T02:10:41;10.73;;;3.92;;
21697;SDS011;11010;49.548;11.926;2023-06-22T02:13:10;10.30;;;4.45;;
21697;SDS011;11010;49.548;11.926;2023-06-22T02:15:39;11.20;;;3.78;;
21697;SDS011;11010;49.548;11.926;2023-06-22T02:18:07;10.60;;;4.10;;
21697;SDS011;11010;49.548;11.926;2023-06-22T02:20:37;10.35;;;3.95;;
21697;SDS011;11010;49.548;11.926;2023-06-22T02:23:05;9.63;;;4.00;;
21697;SDS011;11010;49.548;11.926;2023-06-22T02:25:34;10.75;;;3.92;;
21697;SDS011;11010;49.548;11.926;2023-06-22T02:28:02;11.57;;;4.18;;
21697;SDS011;11010;49.548;11.926;2023-06-22T02:30:29;9.80;;;3.95;;
21697;SDS011;11010;49.548;11.926;2023-06-22T02:32:58;9.52;;;4.18;;
21697;SDS011;11010;49.548;11.926;2023-06-22T02:35:26;10.80;;;4.22;;
21697;SDS011;11010;49.548;11.926;2023-06-22T02:37:58;10.15;;;4.07;;
21697;SDS011;11010;49.548;11.926;2023-06-22T02:40:27;11.90;;;4.22;;
21697;SDS011;11010;49.548;11.926;2023-06-22T02:42:56;10.23;;;4.18;;
21697;SDS011;11010;49.548;11.926;2023-06-22T02:45:28;11.07;;;4.38;;
21697;SDS011;11010;49.548;11.926;2023-06-22T02:47:56;9.70;;;4.10;;
21697;SDS011;11010;49.548;11.926;2023-06-22T02:50:23;10.35;;;4.65;;
21697;SDS011;11010;49.548;11.926;2023-06-22T02:52:52;11.57;;;4.80;;
21697;SDS011;11010;49.548;11.926;2023-06-22T02:55:20;11.23;;;4.40;;
21697;SDS011;11010;49.548;11.926;2023-06-22T02:57:53;9.98;;;4.50;;
21697;SDS011;11010;49.548;11.926;2023-06-22T03:00:21;9.65;;;4.25;;
21697;SDS011;11010;49.548;11.926;2023-06-22T03:02:49;10.68;;;4.82;;
21697;SDS011;11010;49.548;11.926;2023-06-22T03:05:17;10.98;;;4.20;;
21697;SDS011;11010;49.548;11.926;2023-06-22T03:07:46;10.57;;;4.53;;
21697;SDS011;11010;49.548;11.926;2023-06-22T03:10:14;9.73;;;3.95;;
21697;SDS011;11010;49.548;11.926;2023-06-22T03:12:42;12.13;;;4.45;;
21697;SDS011;11010;49.548;11.926;2023-06-22T03:15:10;12.02;;;4.50;;
21697;SDS011;11010;49.548;11.926;2023-06-22T03:17:39;11.18;;;4.07;;
21697;SDS011;11010;49.548;11.926;2023-06-22T03:20:08;9.02;;;3.58;;
21697;SDS011;11010;49.548;11.926;2023-06-22T03:22:37;9.98;;;4.03;;
21697;SDS011;11010;49.548;11.926;2023-06-22T03:25:05;10.02;;;4.22;;
21697;SDS011;11010;49.548;11.926;2023-06-22T03:27:42;10.00;;;4.20;;
21697;SDS011;11010;49.548;11.926;2023-06-22T03:30:13;9.35;;;4.22;;
21697;SDS011;11010;49.548;11.926;2023-06-22T03:32:40;9.27;;;3.65;;
21697;SDS011;11010;49.548;11.926;2023-06-22T03:35:09;9.63;;;4.00;;
21697;SDS011;11010;49.548;11.926;2023-06-22T03:37:39;10.18;;;4.35;;
21697;SDS011;11010;49.548;11.926;2023-06-22T03:40:07;10.65;;;4.60;;
21697;SDS011;11010;49.548;11.926;2023-06-22T03:42:35;11.40;;;4.32;;
21697;SDS011;11010;49.548;11.926;2023-06-22T03:45:02;11.23;;;4.47;;
21697;SDS011;11010;49.548;11.926;2023-06-22T03:47:30;9.93;;;4.47;;
21697;SDS011;11010;49.548;11.926;2023-06-22T03:49:58;9.52;;;3.95;;
21697;SDS011;11010;49.548;11.926;2023-06-22T03:52:25;9.88;;;4.20;;
21697;SDS011;11010;49.548;11.926;2023-06-22T03:54:52;10.25;;;4.30;;
21697;SDS011;11010;49.548;11.926;2023-06-22T03:57:19;9.90;;;4.50;;
21697;SDS011;11010;49.548;11.926;2023-06-22T03:59:46;11.02;;;4.78;;
21697;SDS011;11010;49.548;11.926;2023-06-22T04:02:13;10.52;;;4.60;;
21697;SDS011;11010;49.548;11.926;2023-06-22T04:04:41;10.38;;;4.75;;
21697;SDS011;11010;49.548;11.926;2023-06-22T04:07:08;10.00;;;4.28;;
21697;SDS011;11010;49.548;11.926;2023-06-22T04:09:35;9.90;;;4.53;;
21697;SDS011;11010;49.548;11.926;2023-06-22T04:12:02;10.68;;;4.82;;
21697;SDS011;11010;49.548;11.926;2023-06-22T04:14:29;10.48;;;4.53;;
21697;SDS011;11010;49.548;11.926;2023-06-22T04:16:57;10.48;;;4.72;;
21697;SDS011;11010;49.548;11.926;2023-06-22T04:19:24;10.75;;;4.75;;
21697;SDS011;11010;49.548;11.926;2023-06-22T04:21:51;10.70;;;4.70;;
21697;SDS011;11010;49.548;11.926;2023-06-22T04:24:19;10.20;;;4.45;;
21697;SDS011;11010;49.548;11.926;2023-06-22T04:26:46;11.73;;;4.22;;
21697;SDS011;11010;49.548;11.926;2023-06-22T04:29:13;10.85;;;4.43;;
21697;SDS011;11010;49.548;11.926;2023-06-22T04:31:41;10.18;;;4.68;;
21697;SDS011;11010;49.548;11.926;2023-06-22T04:34:08;10.13;;;4.60;;
21697;SDS011;11010;49.548;11.926;2023-06-22T04:36:40;9.60;;;4.35;;
21697;SDS011;11010;49.548;11.926;2023-06-22T04:39:08;10.70;;;4.85;;
21697;SDS011;11010;49.548;11.926;2023-06-22T04:41:37;15.95;;;5.40;;
21697;SDS011;11010;49.548;11.926;2023-06-22T04:44:15;10.50;;;4.05;;
21697;SDS011;11010;49.548;11.926;2023-06-22T04:46:54;11.07;;;5.05;;
21697;SDS011;11010;49.548;11.926;2023-06-22T04:49:35;13.25;;;4.95;;
21697;SDS011;11010;49.548;11.926;2023-06-22T04:52:04;11.13;;;5.55;;
21697;SDS011;11010;49.548;11.926;2023-06-22T04:54:37;13.02;;;6.07;;
21697;SDS011;11010;49.548;11.926;2023-06-22T04:57:06;11.82;;;5.93;;
21697;SDS011;11010;49.548;11.926;2023-06-22T04:59:37;12.75;;;6.43;;
21697;SDS011;11010;49.548;11.926;2023-06-22T05:02:08;12.25;;;5.90;;
21697;SDS011;11010;49.548;11.926;2023-06-22T05:04:36;11.63;;;5.72;;
21697;SDS011;11010;49.548;11.926;2023-06-22T05:07:06;12.32;;;5.50;;
21697;SDS011;11010;49.548;11.926;2023-06-22T05:09:33;13.70;;;6.45;;
21697;SDS011;11010;49.548;11.926;2023-06-22T05:12:01;14.07;;;7.20;;
21697;SDS011;11010;49.548;11.926;2023-06-22T05:14:29;16.98;;;7.18;;
21697;SDS011;11010;49.548;11.926;2023-06-22T05:16:57;14.77;;;7.07;;
21697;SDS011;11010;49.548;11.926;2023-06-22T05:19:30;14.52;;;6.93;;
21697;SDS011;11010;49.548;11.926;2023-06-22T05:22:00;13.98;;;7.47;;
21697;SDS011;11010;49.548;11.926;2023-06-22T05:24:28;14.55;;;7.00;;
21697;SDS011;11010;49.548;11.926;2023-06-22T05:26:55;13.23;;;6.47;;
21697;SDS011;11010;49.548;11.926;2023-06-22T05:29:22;14.40;;;7.07;;
21697;SDS011;11010;49.548;11.926;2023-06-22T05:31:49;14.35;;;7.15;;
21697;SDS011;11010;49.548;11.926;2023-06-22T05:34:16;13.20;;;7.55;;
21697;SDS011;11010;49.548;11.926;2023-06-22T05:36:44;14.18;;;6.95;;
21697;SDS011;11010;49.548;11.926;2023-06-22T05:39:12;13.05;;;6.75;;
21697;SDS011;11010;49.548;11.926;2023-06-22T05:41:40;13.50;;;6.95;;
21697;SDS011;11010;49.548;11.926;2023-06-22T05:44:07;14.13;;;7.32;;
21697;SDS011;11010;49.548;11.926;2023-06-22T05:46:34;13.30;;;7.38;;
21697;SDS011;11010;49.548;11.926;2023-06-22T05:49:02;12.73;;;6.65;;
21697;SDS011;11010;49.548;11.926;2023-06-22T05:51:29;12.98;;;6.65;;
21697;SDS011;11010;49.548;11.926;2023-06-22T05:53:56;12.80;;;6.70;;
21697;SDS011;11010;49.548;11.926;2023-06-22T05:56:23;14.88;;;7.25;;
21697;SDS011;11010;49.548;11.926;2023-06-22T05:58:50;13.75;;;7.70;;
21697;SDS011;11010;49.548;11.926;2023-06-22T06:01:17;14.77;;;6.95;;
21697;SDS011;11010;49.548;11.926;2023-06-22T06:03:45;14.60;;;7.28;;
21697;SDS011;11010;49.548;11.926;2023-06-22T06:06:12;12.77;;;7.10;;
21697;SDS011;11010;49.548;11.926;2023-06-22T06:08:39;14.13;;;6.78;;
21697;SDS011;11010;49.548;11.926;2023-06-22T06:11:07;12.75;;;6.68;;
21697;SDS011;11010;49.548;11.926;2023-06-22T06:13:34;12.82;;;7.10;;
21697;SDS011;11010;49.548;11.926;2023-06-22T06:16:01;12.65;;;6.78;;
21697;SDS011;11010;49.548;11.926;2023-06-22T06:18:28;15.85;;;7.43;;
21697;SDS011;11010;49.548;11.926;2023-06-22T06:20:55;13.05;;;7.35;;
21697;SDS011;11010;49.548;11.926;2023-06-22T06:23:22;14.90;;;7.25;;
21697;SDS011;11010;49.548;11.926;2023-06-22T06:25:49;15.40;;;7.30;;
21697;SDS011;11010;49.548;11.926;2023-06-22T06:28:16;14.77;;;6.88;;
21697;SDS011;11010;49.548;11.926;2023-06-22T06:30:44;15.77;;;7.50;;
21697;SDS011;11010;49.548;11.926;2023-06-22T06:33:13;15.55;;;7.80;;
21697;SDS011;11010;49.548;11.926;2023-06-22T06:35:40;14.75;;;6.45;;
21697;SDS011;11010;49.548;11.926;2023-06-22T06:38:07;13.38;;;6.50;;
21697;SDS011;11010;49.548;11.926;2023-06-22T06:40:34;13.80;;;7.03;;
21697;SDS011;11010;49.548;11.926;2023-06-22T06:43:02;13.45;;;6.97;;
21697;SDS011;11010;49.548;11.926;2023-06-22T06:45:29;14.20;;;7.00;;
21697;SDS011;11010;49.548;11.926;2023-06-22T06:47:59;15.00;;;7.05;;
21697;SDS011;11010;49.548;11.926;2023-06-22T06:50:27;19.80;;;7.40;;
21697;SDS011;11010;49.548;11.926;2023-06-22T06:52:55;16.98;;;7.30;;
21697;SDS011;11010;49.548;11.926;2023-06-22T06:55:25;14.30;;;7.15;;
21697;SDS011;11010;49.548;11.926;2023-06-22T06:57:53;13.65;;;6.72;;
21697;SDS011;11010;49.548;11.926;2023-06-22T07:00:20;12.45;;;6.97;;
21697;SDS011;11010;49.548;11.926;2023-06-22T07:02:47;15.52;;;7.35;;
21697;SDS011;11010;49.548;11.926;2023-06-22T07:05:15;12.95;;;6.95;;
21697;SDS011;11010;49.548;11.926;2023-06-22T07:07:42;13.75;;;7.10;;
21697;SDS011;11010;49.548;11.926;2023-06-22T07:10:10;13.25;;;6.78;;
21697;SDS011;11010;49.548;11.926;2023-06-22T07:12:38;14.02;;;6.65;;
21697;SDS011;11010;49.548;11.926;2023-06-22T07:15:05;13.65;;;6.80;;
21697;SDS011;11010;49.548;11.926;2023-06-22T07:17:38;18.38;;;6.85;;
21697;SDS011;11010;49.548;11.926;2023-06-22T07:20:08;12.68;;;6.75;;
21697;SDS011;11010;49.548;11.926;2023-06-22T07:22:46;12.65;;;6.35;;
21697;SDS011;11010;49.548;11.926;2023-06-22T07:25:13;12.20;;;6.68;;
21697;SDS011;11010;49.548;11.926;2023-06-22T07:27:45;14.77;;;7.15;;
21697;SDS011;11010;49.548;11.926;2023-06-22T07:30:22;16.88;;;6.65;;
21697;SDS011;11010;49.548;11.926;2023-06-22T07:32:50;12.75;;;6.35;;
21697;SDS011;11010;49.548;11.926;2023-06-22T07:35:17;15.30;;;6.15;;
21697;SDS011;11010;49.548;11.926;2023-06-22T07:37:44;13.18;;;6.47;;
21697;SDS011;11010;49.548;11.926;2023-06-22T07:40:11;12.00;;;5.90;;
21697;SDS011;11010;49.548;11.926;2023-06-22T07:42:39;13.70;;;6.05;;
21697;SDS011;11010;49.548;11.926;2023-06-22T07:45:06;11.80;;;6.13;;
21697;SDS011;11010;49.548;11.926;2023-06-22T07:47:35;13.00;;;6.05;;
21697;SDS011;11010;49.548;11.926;2023-06-22T07:50:02;16.95;;;6.55;;
21697;SDS011;11010;49.548;11.926;2023-06-22T07:52:30;11.55;;;6.10;;
21697;SDS011;11010;49.548;11.926;2023-06-22T07:54:57;13.93;;;6.57;;
21697;SDS011;11010;49.548;11.926;2023-06-22T07:57:25;11.20;;;6.20;;
21697;SDS011;11010;49.548;11.926;2023-06-22T08:00:00;12.50;;;6.38;;
21697;SDS011;11010;49.548;11.926;2023-06-22T08:02:38;12.73;;;6.07;;
21697;SDS011;11010;49.548;11.926;2023-06-22T08:05:05;12.93;;;6.07;;
21697;SDS011;11010;49.548;11.926;2023-06-22T08:07:54;12.00;;;5.72;;
21697;SDS011;11010;49.548;11.926;2023-06-22T08:10:22;13.02;;;6.13;;
21697;SDS011;11010;49.548;11.926;2023-06-22T08:12:49;13.23;;;5.60;;
21697;SDS011;11010;49.548;11.926;2023-06-22T08:15:18;13.00;;;5.80;;
21697;SDS011;11010;49.548;11.926;2023-06-22T08:17:45;11.38;;;5.72;;
21697;SDS011;11010;49.548;11.926;2023-06-22T08:20:13;12.55;;;5.78;;
21697;SDS011;11010;49.548;11.926;2023-06-22T08:22:40;11.32;;;5.78;;
21697;SDS011;11010;49.548;11.926;2023-06-22T08:25:09;11.48;;;5.63;;
21697;SDS011;11010;49.548;11.926;2023-06-22T08:27:36;14.63;;;5.70;;
21697;SDS011;11010;49.548;11.926;2023-06-22T08:30:04;11.38;;;5.70;;
21697;SDS011;11010;49.548;11.926;2023-06-22T08:32:32;11.38;;;5.35;;
21697;SDS011;11010;49.548;11.926;2023-06-22T08:35:00;13.25;;;5.90;;
21697;SDS011;11010;49.548;11.926;2023-06-22T08:37:27;12.10;;;5.78;;
21697;SDS011;11010;49.548;11.926;2023-06-22T08:40:04;12.60;;;5.57;;
21697;SDS011;11010;49.548;11.926;2023-06-22T08:42:37;11.68;;;5.78;;
21697;SDS011;11010;49.548;11.926;2023-06-22T08:45:07;11.57;;;5.35;;
21697;SDS011;11010;49.548;11.926;2023-06-22T08:47:34;10.98;;;5.43;;
21697;SDS011;11010;49.548;11.926;2023-06-22T08:50:02;13.13;;;5.55;;
21697;SDS011;11010;49.548;11.926;2023-06-22T08:52:30;11.13;;;5.28;;
21697;SDS011;11010;49.548;11.926;2023-06-22T08:54:57;10.35;;;5.43;;
21697;SDS011;11010;49.548;11.926;2023-06-22T08:57:25;12.43;;;5.72;;
21697;SDS011;11010;49.548;11.926;2023-06-22T08:59:53;12.70;;;5.45;;
21697;SDS011;11010;49.548;11.926;2023-06-22T09:02:20;12.75;;;5.18;;
21697;SDS011;11010;49.548;11.926;2023-06-22T09:04:47;12.10;;;5.10;;
21697;SDS011;11010;49.548;11.926;2023-06-22T09:07:15;10.93;;;5.20;;
21697;SDS011;11010;49.548;11.926;2023-06-22T09:09:49;11.57;;;5.22;;
21697;SDS011;11010;49.548;11.926;2023-06-22T09:12:16;10.60;;;5.15;;
21697;SDS011;11010;49.548;11.926;2023-06-22T09:14:46;12.63;;;5.10;;
21697;SDS011;11010;49.548;11.926;2023-06-22T09:17:13;10.73;;;4.97;;
21697;SDS011;11010;49.548;11.926;2023-06-22T09:19:40;12.27;;;5.28;;
21697;SDS011;11010;49.548;11.926;2023-06-22T09:22:08;13.07;;;5.30;;
21697;SDS011;11010;49.548;11.926;2023-06-22T09:24:35;11.98;;;4.80;;
21697;SDS011;11010;49.548;11.926;2023-06-22T09:27:02;9.88;;;4.38;;
21697;SDS011;11010;49.548;11.926;2023-06-22T09:29:29;11.70;;;4.53;;
21697;SDS011;11010;49.548;11.926;2023-06-22T09:32:00;10.48;;;4.30;;
21697;SDS011;11010;49.548;11.926;2023-06-22T09:34:27;10.05;;;3.97;;
21697;SDS011;11010;49.548;11.926;2023-06-22T09:36:54;12.48;;;4.40;;
21697;SDS011;11010;49.548;11.926;2023-06-22T09:39:23;10.35;;;4.75;;
21697;SDS011;11010;49.548;11.926;2023-06-22T09:41:50;10.32;;;4.03;;
21697;SDS011;11010;49.548;11.926;2023-06-22T09:44:17;9.93;;;4.40;;
21697;SDS011;11010;49.548;11.926;2023-06-22T09:46:45;9.70;;;4.60;;
21697;SDS011;11010;49.548;11.926;2023-06-22T09:49:12;12.27;;;4.85;;
21697;SDS011;11010;49.548;11.926;2023-06-22T09:51:39;11.52;;;4.75;;
21697;SDS011;11010;49.548;11.926;2023-06-22T09:54:06;10.25;;;4.40;;
21697;SDS011;11010;49.548;11.926;2023-06-22T09:56:33;11.82;;;4.20;;
21697;SDS011;11010;49.548;11.926;2023-06-22T09:59:00;11.93;;;4.82;;
21697;SDS011;11010;49.548;11.926;2023-06-22T10:01:42;10.50;;;4.57;;
21697;SDS011;11010;49.548;11.926;2023-06-22T10:04:09;10.38;;;4.72;;
21697;SDS011;11010;49.548;11.926;2023-06-22T10:06:37;10.93;;;4.60;;
21697;SDS011;11010;49.548;11.926;2023-06-22T10:09:07;10.65;;;4.40;;
21697;SDS011;11010;49.548;11.926;2023-06-22T10:11:35;9.75;;;3.92;;
21697;SDS011;11010;49.548;11.926;2023-06-22T10:14:03;10.50;;;4.20;;
21697;SDS011;11010;49.548;11.926;2023-06-22T10:16:31;12.98;;;4.85;;
21697;SDS011;11010;49.548;11.926;2023-06-22T10:18:58;10.80;;;4.43;;
21697;SDS011;11010;49.548;11.926;2023-06-22T10:21:26;12.23;;;4.28;;
21697;SDS011;11010;49.548;11.926;2023-06-22T10:23:55;12.50;;;4.78;;
21697;SDS011;11010;49.548;11.926;2023-06-22T10:26:22;10.23;;;4.00;;
21697;SDS011;11010;49.548;11.926;2023-06-22T10:28:49;11.77;;;4.90;;
21697;SDS011;11010;49.548;11.926;2023-06-22T10:31:32;11.38;;;4.47;;
21697;SDS011;11010;49.548;11.926;2023-06-22T10:34:00;10.32;;;4.45;;
21697;SDS011;11010;49.548;11.926;2023-06-22T10:36:27;10.52;;;4.20;;
21697;SDS011;11010;49.548;11.926;2023-06-22T10:38:54;11.18;;;4.53;;
21697;SDS011;11010;49.548;11.926;2023-06-22T10:41:22;10.65;;;4.28;;
21697;SDS011;11010;49.548;11.926;2023-06-22T10:43:49;11.63;;;4.28;;
21697;SDS011;11010;49.548;11.926;2023-06-22T10:46:16;15.88;;;4.40;;
21697;SDS011;11010;49.548;11.926;2023-06-22T10:48:43;12.50;;;4.38;;
21697;SDS011;11010;49.548;11.926;2023-06-22T10:51:10;10.07;;;4.03;;
21697;SDS011;11010;49.548;11.926;2023-06-22T10:53:38;9.35;;;4.15;;
21697;SDS011;11010;49.548;11.926;2023-06-22T10:56:05;10.90;;;3.97;;
21697;SDS011;11010;49.548;11.926;2023-06-22T10:58:32;11.55;;;4.63;;
21697;SDS011;11010;49.548;11.926;2023-06-22T11:00:59;10.63;;;4.20;;
21697;SDS011;11010;49.548;11.926;2023-06-22T11:03:26;15.30;;;4.60;;
21697;SDS011;11010;49.548;11.926;2023-06-22T11:05:54;11.00;;;4.10;;
21697;SDS011;11010;49.548;11.926;2023-06-22T11:08:21;13.43;;;3.80;;
21697;SDS011;11010;49.548;11.926;2023-06-22T11:10:48;12.27;;;4.45;;
21697;SDS011;11010;49.548;11.926;2023-06-22T11:13:15;10.18;;;3.92;;
21697;SDS011;11010;49.548;11.926;2023-06-22T11:15:43;10.55;;;3.83;;
21697;SDS011;11010;49.548;11.926;2023-06-22T11:18:10;10.93;;;3.80;;
21697;SDS011;11010;49.548;11.926;2023-06-22T11:20:38;10.68;;;4.22;;
21697;SDS011;11010;49.548;11.926;2023-06-22T11:23:07;12.63;;;4.18;;
21697;SDS011;11010;49.548;11.926;2023-06-22T11:25:34;11.02;;;4.00;;
21697;SDS011;11010;49.548;11.926;2023-06-22T11:28:02;9.27;;;3.92;;
21697;SDS011;11010;49.548;11.926;2023-06-22T11:30:30;13.70;;;4.53;;
21697;SDS011;11010;49.548;11.926;2023-06-22T11:32:58;11.32;;;4.10;;
21697;SDS011;11010;49.548;11.926;2023-06-22T11:35:26;11.98;;;4.03;;
21697;SDS011;11010;49.548;11.926;2023-06-22T11:37:53;10.70;;;3.72;;
21697;SDS011;11010;49.548;11.926;2023-06-22T11:40:22;10.90;;;3.85;;
21697;SDS011;11010;49.548;11.926;2023-06-22T11:42:49;11.50;;;3.72;;
21697;SDS011;11010;49.548;11.926;2023-06-22T11:45:16;9.52;;;3.50;;
21697;SDS011;11010;49.548;11.926;2023-06-22T11:47:45;9.65;;;3.65;;
21697;SDS011;11010;49.548;11.926;2023-06-22T11:50:13;9.73;;;3.85;;
21697;SDS011;11010;49.548;11.926;2023-06-22T11:52:40;11.38;;;4.07;;
21697;SDS011;11010;49.548;11.926;2023-06-22T11:55:08;9.07;;;3.70;;
21697;SDS011;11010;49.548;11.926;2023-06-22T11:57:35;11.20;;;4.05;;
21697;SDS011;11010;49.548;11.926;2023-06-22T12:00:03;9.85;;;3.90;;
21697;SDS011;11010;49.548;11.926;2023-06-22T12:02:44;11.52;;;4.10;;
21697;SDS011;11010;49.548;11.926;2023-06-22T12:05:12;10.13;;;3.95;;
21697;SDS011;11010;49.548;11.926;2023-06-22T12:07:39;11.13;;;4.03;;
21697;SDS011;11010;49.548;11.926;2023-06-22T12:10:06;10.93;;;4.05;;
21697;SDS011;11010;49.548;11.926;2023-06-22T12:12:34;10.68;;;4.18;;
21697;SDS011;11010;49.548;11.926;2023-06-22T12:15:01;13.32;;;4.18;;
21697;SDS011;11010;49.548;11.926;2023-06-22T12:17:30;10.63;;;4.18;;
21697;SDS011;11010;49.548;11.926;2023-06-22T12:19:58;14.25;;;4.65;;
21697;SDS011;11010;49.548;11.926;2023-06-22T12:22:25;12.68;;;4.40;;
21697;SDS011;11010;49.548;11.926;2023-06-22T12:24:52;13.38;;;4.60;;
21697;SDS011;11010;49.548;11.926;2023-06-22T12:27:19;13.07;;;4.10;;
21697;SDS011;11010;49.548;11.926;2023-06-22T12:29:46;9.93;;;4.40;;
21697;SDS011;11010;49.548;11.926;2023-06-22T12:32:14;9.75;;;4.05;;
21697;SDS011;11010;49.548;11.926;2023-06-22T12:34:42;12.85;;;4.32;;
21697;SDS011;11010;49.548;11.926;2023-06-22T12:37:10;12.32;;;4.03;;
21697;SDS011;11010;49.548;11.926;2023-06-22T12:39:39;9.90;;;4.00;;
21697;SDS011;11010;49.548;11.926;2023-06-22T12:42:08;11.13;;;4.30;;
21697;SDS011;11010;49.548;11.926;2023-06-22T12:44:38;11.82;;;4.18;;
21697;SDS011;11010;49.548;11.926;2023-06-22T12:47:08;11.65;;;4.47;;
21697;SDS011;11010;49.548;11.926;2023-06-22T12:49:36;15.27;;;4.78;;
21697;SDS011;11010;49.548;11.926;2023-06-22T12:52:03;12.93;;;4.40;;
21697;SDS011;11010;49.548;11.926;2023-06-22T12:54:35;12.02;;;4.10;;
21697;SDS011;11010;49.548;11.926;2023-06-22T12:57:16;10.98;;;4.30;;
21697;SDS011;11010;49.548;11.926;2023-06-22T12:59:44;11.80;;;4.10;;
21697;SDS011;11010;49.548;11.926;2023-06-22T13:02:11;12.55;;;4.32;;
21697;SDS011;11010;49.548;11.926;2023-06-22T13:04:38;10.77;;;4.15;;
21697;SDS011;11010;49.548;11.926;2023-06-22T13:07:06;13.30;;;4.30;;
21697;SDS011;11010;49.548;11.926;2023-06-22T13:09:48;11.65;;;4.40;;
21697;SDS011;11010;49.548;11.926;2023-06-22T13:12:19;11.82;;;4.40;;
21697;SDS011;11010;49.548;11.926;2023-06-22T13:14:47;10.57;;;4.15;;
21697;SDS011;11010;49.548;11.926;2023-06-22T13:17:15;11.32;;;4.53;;
21697;SDS011;11010;49.548;11.926;2023-06-22T13:19:42;10.45;;;4.15;;
21697;SDS011;11010;49.548;11.926;2023-06-22T13:25:00;10.75;;;4.22;;
21697;SDS011;11010;49.548;11.926;2023-06-22T13:27:28;11.77;;;4.00;;
21697;SDS011;11010;49.548;11.926;2023-06-22T13:29:56;11.68;;;4.30;;
21697;SDS011;11010;49.548;11.926;2023-06-22T13:32:23;11.57;;;4.53;;
21697;SDS011;11010;49.548;11.926;2023-06-22T13:34:50;10.80;;;4.13;;
21697;SDS011;11010;49.548;11.926;2023-06-22T13:37:18;14.35;;;4.85;;
21697;SDS011;11010;49.548;11.926;2023-06-22T13:39:46;11.75;;;4.22;;
21697;SDS011;11010;49.548;11.926;2023-06-22T13:42:13;10.65;;;4.05;;
21697;SDS011;11010;49.548;11.926;2023-06-22T13:44:40;10.48;;;4.07;;
21697;SDS011;11010;49.548;11.926;2023-06-22T13:47:07;10.85;;;4.45;;
21697;SDS011;11010;49.548;11.926;2023-06-22T13:49:34;12.38;;;4.45;;
21697;SDS011;11010;49.548;11.926;2023-06-22T13:52:01;10.13;;;4.10;;
21697;SDS011;11010;49.548;11.926;2023-06-22T13:54:30;11.27;;;4.07;;
21697;SDS011;11010;49.548;11.926;2023-06-22T13:57:01;10.10;;;4.15;;
21697;SDS011;11010;49.548;11.926;2023-06-22T13:59:28;10.80;;;4.30;;
21697;SDS011;11010;49.548;11.926;2023-06-22T14:01:56;11.98;;;4.50;;
21697;SDS011;11010;49.548;11.926;2023-06-22T14:04:23;12.10;;;4.20;;
21697;SDS011;11010;49.548;11.926;2023-06-22T14:06:50;11.65;;;4.40;;
21697;SDS011;11010;49.548;11.926;2023-06-22T14:09:22;11.85;;;4.22;;
21697;SDS011;11010;49.548;11.926;2023-06-22T14:11:49;14.07;;;4.38;;
21697;SDS011;11010;49.548;11.926;2023-06-22T14:14:16;11.80;;;4.65;;
21697;SDS011;11010;49.548;11.926;2023-06-22T14:16:43;11.75;;;4.65;;
21697;SDS011;11010;49.548;11.926;2023-06-22T14:19:11;10.52;;;4.40;;
21697;SDS011;11010;49.548;11.926;2023-06-22T14:21:38;13.73;;;4.63;;
21697;SDS011;11010;49.548;11.926;2023-06-22T14:24:05;13.90;;;4.88;;
21697;SDS011;11010;49.548;11.926;2023-06-22T14:26:32;11.93;;;4.68;;
21697;SDS011;11010;49.548;11.926;2023-06-22T14:28:59;11.63;;;4.57;;
21697;SDS011;11010;49.548;11.926;2023-06-22T14:31:26;11.60;;;4.35;;
21697;SDS011;11010;49.548;11.926;2023-06-22T14:33:54;11.27;;;4.40;;
21697;SDS011;11010;49.548;11.926;2023-06-22T14:36:21;12.32;;;4.40;;
21697;SDS011;11010;49.548;11.926;2023-06-22T14:38:48;12.25;;;4.20;;
21697;SDS011;11010;49.548;11.926;2023-06-22T14:41:15;11.77;;;4.43;;